Time;durP1;ratioP1;P1;durP2;ratioP2;P2;SDS_P1;SDS_P2;PMS_P1;PMS_P2;Temp;Humidity;BMP_temperature;BMP_pressure;BME280_temperature;BME280_humidity;BME280_pressure;Samples;Min_cycle;Max_cycle;Signal;HPM_P1;HPM_P2
2022/06/14 00:01:18;;;;;;;3.20;3.00;;;18.10;67.90;;;;;;4952358;28;20622;-67
2022/06/14 00:03:45;;;;;;;4.20;2.73;;;18.10;68.10;;;;;;4951742;28;20656;-67
2022/06/14 00:06:19;;;;;;;4.20;2.23;;;18.10;68.30;;;;;;4951119;28;20698;-67
2022/06/14 00:08:46;;;;;;;3.57;2.77;;;18.00;68.60;;;;;;4951660;29;20663;-67
2022/06/14 00:11:17;;;;;;;3.33;2.80;;;18.10;68.50;;;;;;4936151;28;21019;-67
2022/06/14 00:13:44;;;;;;;3.07;2.80;;;18.00;68.90;;;;;;4936920;28;20646;-68
2022/06/14 00:16:12;;;;;;;3.47;2.83;;;18.00;69.60;;;;;;4951938;28;20626;-68
2022/06/14 00:18:39;;;;;;;6.00;3.07;;;18.00;68.90;;;;;;4950384;28;20624;-68
2022/06/14 00:21:06;;;;;;;3.33;3.00;;;17.90;69.00;;;;;;4950988;28;20687;-68
2022/06/14 00:23:34;;;;;;;3.80;2.67;;;17.90;69.20;;;;;;4951862;28;20762;-68
2022/06/14 00:26:02;;;;;;;4.80;2.73;;;17.80;69.40;;;;;;4952137;28;20616;-67
2022/06/14 00:28:31;;;;;;;2.83;2.60;;;17.80;69.60;;;;;;4951702;28;21029;-66
2022/06/14 00:31:06;;;;;;;7.03;2.80;;;17.70;69.70;;;;;;4951109;28;20652;-68
2022/06/14 00:33:33;;;;;;;2.37;2.27;;;17.70;69.90;;;;;;4961891;28;20711;-68
2022/06/14 00:36:04;;;;;;;3.30;2.80;;;17.60;70.30;;;;;;4943333;28;21036;-67
2022/06/14 00:38:32;;;;;;;3.47;2.13;;;17.70;70.20;;;;;;4946988;29;20641;-67
2022/06/14 00:41:01;;;;;;;2.50;2.33;;;17.60;70.30;;;;;;4941292;28;20735;-66
2022/06/14 00:43:30;;;;;;;2.70;2.57;;;17.60;70.60;;;;;;4956283;28;20660;-68
2022/06/14 00:46:20;;;;;;;4.17;2.63;;;17.60;70.90;;;;;;4955942;28;20608;-66
2022/06/14 00:48:56;;;;;;;2.97;2.57;;;17.50;71.00;;;;;;4955423;28;20703;-66
2022/06/14 00:51:26;;;;;;;3.07;2.87;;;17.50;71.30;;;;;;4953971;28;20641;-65
2022/06/14 00:54:08;;;;;;;3.43;2.80;;;17.50;71.40;;;;;;4955705;28;21065;-66
2022/06/14 00:56:58;;;;;;;2.67;2.47;;;17.40;71.30;;;;;;4952041;28;20644;-65
2022/06/14 00:59:34;;;;;;;2.60;2.23;;;17.40;71.50;;;;;;4956356;28;20677;-66
2022/06/14 01:02:13;;;;;;;6.73;2.90;;;17.40;72.00;;;;;;4939690;28;20644;-66
2022/06/14 01:04:41;;;;;;;3.87;2.13;;;17.30;72.40;;;;;;4952933;28;20683;-66
2022/06/14 01:07:18;;;;;;;2.23;2.13;;;17.30;72.80;;;;;;4935538;29;20647;-66
2022/06/14 01:09:55;;;;;;;3.10;2.80;;;17.20;73.00;;;;;;4935164;29;20683;-67
2022/06/14 01:12:26;;;;;;;2.77;2.50;;;17.20;73.40;;;;;;4951212;28;20982;-67
2022/06/14 01:15:03;;;;;;;3.70;2.30;;;17.10;73.70;;;;;;4959475;28;20626;-67
2022/06/14 01:17:42;;;;;;;2.63;2.43;;;17.10;73.90;;;;;;4961183;28;20730;-67
2022/06/14 01:20:12;;;;;;;3.57;3.00;;;17.10;74.10;;;;;;4954002;28;20744;-67
2022/06/14 01:22:39;;;;;;;2.70;2.50;;;17.00;74.80;;;;;;4954966;28;20623;-67
2022/06/14 01:25:07;;;;;;;3.57;3.27;;;17.00;75.00;;;;;;4954687;28;20655;-66
2022/06/14 01:27:37;;;;;;;3.07;2.80;;;17.00;75.20;;;;;;4955865;28;20716;-65
2022/06/14 01:30:23;;;;;;;2.77;2.57;;;16.90;75.60;;;;;;4943876;28;20748;-66
2022/06/14 01:33:33;;;;;;;3.10;2.80;;;17.00;76.00;;;;;;4935483;29;21149;-66
2022/06/14 01:36:05;;;;;;;3.67;2.93;;;17.00;76.00;;;;;;4943796;28;20643;-67
2022/06/14 01:38:32;;;;;;;3.20;3.00;;;17.00;76.50;;;;;;4935019;29;20667;-66
2022/06/14 01:41:18;;;;;;;2.90;2.70;;;17.00;76.60;;;;;;4945867;28;20738;-67
2022/06/14 01:44:00;;;;;;;2.77;2.60;;;16.90;77.30;;;;;;4974668;28;20670;-67
2022/06/14 01:46:47;;;;;;;3.10;2.90;;;16.80;77.90;;;;;;4974236;28;20595;-67
2022/06/14 01:52:43;;;;;;;5.03;3.00;;;16.80;78.40;;;;;;4952130;28;20636;-66
2022/06/14 01:55:35;;;;;;;2.40;2.30;;;16.70;79.10;;;;;;4952862;28;21179;-66
2022/06/14 01:58:12;;;;;;;3.20;2.70;;;16.60;79.70;;;;;;4953434;28;20739;-67
2022/06/14 02:01:00;;;;;;;2.87;2.67;;;16.60;79.90;;;;;;4953420;28;20739;-66
2022/06/14 02:06:43;;;;;;;2.30;2.07;;;16.60;80.50;;;;;;4953494;28;20646;-65
2022/06/14 02:09:14;;;;;;;2.40;2.30;;;16.50;80.90;;;;;;4953356;28;20682;-66
2022/06/14 02:11:41;;;;;;;5.17;2.30;;;16.50;81.30;;;;;;4953352;28;20636;-66
2022/06/14 02:14:21;;;;;;;3.00;2.80;;;16.50;81.30;;;;;;4954829;28;20723;-66
2022/06/14 02:17:19;;;;;;;2.60;2.40;;;16.40;81.90;;;;;;4953620;28;20624;-65
2022/06/14 02:19:57;;;;;;;2.80;2.50;;;16.40;82.60;;;;;;4951598;28;20681;-67
2022/06/14 02:22:41;;;;;;;2.70;2.50;;;16.40;82.90;;;;;;4952766;28;20739;-67
2022/06/14 02:25:15;;;;;;;4.40;2.33;;;16.40;83.10;;;;;;4952474;28;21223;-69
2022/06/14 02:27:53;;;;;;;3.00;2.43;;;16.40;83.60;;;;;;4952692;28;20638;-67
2022/06/14 02:30:25;;;;;;;2.73;2.53;;;16.30;84.00;;;;;;4951760;28;20659;-67
2022/06/14 02:33:01;;;;;;;4.60;2.90;;;16.30;83.80;;;;;;4953144;28;20608;-68
2022/06/14 02:35:43;;;;;;;4.87;2.90;;;16.30;84.30;;;;;;4952183;28;20667;-67
2022/06/14 02:38:27;;;;;;;2.97;2.77;;;16.20;85.40;;;;;;4948140;28;20621;-66
2022/06/14 02:41:03;;;;;;;2.70;2.50;;;16.20;85.20;;;;;;4943974;28;20683;-67
2022/06/14 02:43:36;;;;;;;2.60;2.50;;;16.20;85.20;;;;;;4952125;29;20643;-66
2022/06/14 02:46:14;;;;;;;3.10;2.90;;;16.10;86.40;;;;;;4952224;28;20647;-66
2022/06/14 02:48:56;;;;;;;3.10;2.80;;;16.10;86.70;;;;;;4952575;28;20674;-65
2022/06/14 02:51:32;;;;;;;5.37;2.80;;;16.10;87.20;;;;;;4964261;28;20648;-66
2022/06/14 02:54:06;;;;;;;2.63;2.30;;;16.10;87.40;;;;;;4953298;28;20717;-66
2022/06/14 02:56:48;;;;;;;2.70;2.50;;;16.10;88.10;;;;;;4958603;28;20727;-68
2022/06/14 02:59:50;;;;;;;4.83;2.70;;;16.10;88.10;;;;;;4951291;28;20659;-68
2022/06/14 03:02:53;;;;;;;2.13;2.03;;;16.10;88.00;;;;;;4951791;28;20627;-67
2022/06/14 03:05:45;;;;;;;2.30;2.20;;;15.90;88.60;;;;;;4945845;28;20667;-68
2022/06/14 03:08:29;;;;;;;6.30;2.23;;;15.90;89.30;;;;;;4950276;29;20729;-67
2022/06/14 03:11:29;;;;;;;5.20;2.63;;;15.90;90.00;;;;;;4951468;28;20640;-66
2022/06/14 03:14:01;;;;;;;2.40;2.30;;;15.80;90.40;;;;;;4944994;29;20659;-66
2022/06/14 03:16:47;;;;;;;5.30;2.77;;;15.70;90.90;;;;;;4952252;29;20667;-67
2022/06/14 03:19:31;;;;;;;2.27;2.17;;;15.60;91.00;;;;;;4952450;29;20683;-67
2022/06/14 03:22:10;;;;;;;2.47;2.27;;;15.60;91.30;;;;;;4951087;28;20728;-67
2022/06/14 03:25:03;;;;;;;2.17;2.03;;;15.60;91.60;;;;;;4953396;28;20774;-68
2022/06/14 03:28:03;;;;;;;2.40;2.20;;;15.70;91.70;;;;;;4951311;28;20646;-66
2022/06/14 03:30:36;;;;;;;2.27;2.17;;;15.70;91.90;;;;;;4952662;28;20750;-68
2022/06/14 03:33:54;;;;;;;2.93;2.23;;;15.70;92.20;;;;;;4953554;28;20647;-65
2022/06/14 03:36:21;;;;;;;4.03;2.50;;;15.70;92.30;;;;;;4924874;29;20624;-67
2022/06/14 03:38:52;;;;;;;2.10;2.00;;;15.70;92.20;;;;;;4951512;28;20742;-67
2022/06/14 03:41:30;;;;;;;3.00;2.80;;;15.70;92.30;;;;;;4950818;28;20646;-67
2022/06/14 03:43:59;;;;;;;1.90;1.80;;;15.80;92.10;;;;;;4936073;28;20735;-66
2022/06/14 03:46:34;;;;;;;2.03;1.93;;;15.80;91.90;;;;;;4932568;29;20616;-66
2022/06/14 03:49:17;;;;;;;2.57;2.47;;;15.90;91.90;;;;;;4933191;29;20707;-67
2022/06/14 03:51:58;;;;;;;2.27;2.17;;;15.90;91.90;;;;;;4938602;28;20636;-68
2022/06/14 03:54:55;;;;;;;2.17;2.07;;;16.00;91.90;;;;;;4951933;28;20646;-67
2022/06/14 03:57:37;;;;;;;5.07;2.50;;;16.20;91.40;;;;;;4957881;28;20854;-68
2022/06/14 04:00:29;;;;;;;2.27;2.10;;;16.20;91.10;;;;;;4962830;28;20663;-68
2022/06/14 04:03:14;;;;;;;2.67;2.40;;;16.30;91.00;;;;;;4951413;28;20719;-67
2022/06/14 04:06:13;;;;;;;5.63;2.23;;;16.30;91.10;;;;;;4951343;28;21319;-67
2022/06/14 04:09:12;;;;;;;2.20;2.10;;;16.50;91.00;;;;;;4929306;29;20629;-67
2022/06/14 04:11:59;;;;;;;5.37;2.97;;;16.70;90.60;;;;;;4933272;29;20656;-66
2022/06/14 04:14:41;;;;;;;2.27;2.17;;;16.90;89.80;;;;;;4937476;28;20646;-66
2022/06/14 04:17:29;;;;;;;2.60;2.40;;;17.10;88.50;;;;;;4952155;28;20626;-68
2022/06/14 04:20:21;;;;;;;3.73;2.77;;;17.40;88.00;;;;;;4951199;28;21270;-68
2022/06/14 04:23:43;;;;;;;3.63;3.33;;;17.60;85.80;;;;;;4950433;28;20648;-67
2022/06/14 04:26:15;;;;;;;2.53;2.37;;;17.70;84.60;;;;;;4908134;28;20726;-67
2022/06/14 04:28:52;;;;;;;2.70;2.50;;;17.70;84.70;;;;;;4952447;28;20720;-68
2022/06/14 04:31:29;;;;;;;2.70;2.50;;;17.90;83.70;;;;;;4951369;28;20636;-68
2022/06/14 04:34:12;;;;;;;2.80;2.60;;;18.10;83.60;;;;;;4932664;29;20621;-66
2022/06/14 04:36:54;;;;;;;2.60;2.40;;;18.20;82.50;;;;;;4943428;28;20668;-66
2022/06/14 04:39:31;;;;;;;2.40;2.20;;;18.50;81.70;;;;;;4971671;23;20680;-65
2022/06/14 04:42:04;;;;;;;3.50;2.60;;;18.70;80.90;;;;;;4945104;28;20649;-68
2022/06/14 04:44:47;;;;;;;3.73;2.63;;;18.80;80.10;;;;;;4941105;29;20664;-68
2022/06/14 04:47:31;;;;;;;2.70;2.40;;;18.90;79.70;;;;;;4952166;29;21136;-68
2022/06/14 04:50:24;;;;;;;2.67;2.50;;;19.10;79.30;;;;;;4951390;28;20937;-68
2022/06/14 04:53:02;;;;;;;2.53;2.33;;;19.30;78.50;;;;;;4949864;29;20624;-67
2022/06/14 04:55:47;;;;;;;3.20;2.90;;;19.50;78.20;;;;;;4951496;28;21087;-68
2022/06/14 04:58:24;;;;;;;5.70;2.80;;;19.70;77.20;;;;;;4938833;28;20655;-68
2022/06/14 05:01:05;;;;;;;3.43;2.87;;;19.70;77.00;;;;;;4950361;28;20663;-68
2022/06/14 05:03:58;;;;;;;3.30;2.40;;;19.80;77.00;;;;;;4949021;28;20805;-68
2022/06/14 05:06:29;;;;;;;3.50;2.40;;;20.10;76.60;;;;;;4958882;28;21227;-69
2022/06/14 05:09:02;;;;;;;13.67;2.73;;;20.40;74.70;;;;;;4950898;28;20654;-68
2022/06/14 05:11:45;;;;;;;2.33;2.23;;;20.50;74.90;;;;;;4951249;29;20636;-68
2022/06/14 05:14:18;;;;;;;3.80;2.80;;;20.60;74.70;;;;;;4950957;28;20651;-70
2022/06/14 05:16:53;;;;;;;2.67;2.47;;;21.00;74.50;;;;;;4951288;28;20979;-68
2022/06/14 05:19:30;;;;;;;2.50;2.27;;;21.20;72.50;;;;;;4951406;28;20620;-68
2022/06/14 05:22:10;;;;;;;3.13;2.37;;;21.40;71.80;;;;;;4950723;28;20668;-68
2022/06/14 05:24:38;;;;;;;4.07;2.50;;;21.50;71.20;;;;;;4951995;28;21034;-68
2022/06/14 05:27:26;;;;;;;2.60;2.40;;;21.80;70.40;;;;;;4954945;28;20715;-68
2022/06/14 05:30:11;;;;;;;7.00;2.40;;;21.80;70.00;;;;;;4954178;28;20690;-68
2022/06/14 05:32:58;;;;;;;2.47;2.27;;;22.10;69.20;;;;;;4955210;28;20643;-69
2022/06/14 05:35:47;;;;;;;4.50;2.63;;;22.30;67.90;;;;;;4953212;28;20631;-70
2022/06/14 05:38:36;;;;;;;4.10;2.57;;;22.40;67.30;;;;;;4954171;28;20654;-70
2022/06/14 05:41:07;;;;;;;5.73;2.27;;;22.30;66.20;;;;;;4954882;29;20655;-68
2022/06/14 05:43:39;;;;;;;4.30;2.20;;;22.30;66.60;;;;;;4955979;28;20620;-68
2022/06/14 05:46:08;;;;;;;1.80;1.70;;;22.30;66.10;;;;;;4954437;28;20708;-68
2022/06/14 05:48:59;;;;;;;2.27;2.17;;;22.30;66.50;;;;;;4955047;29;20659;-69
2022/06/14 05:51:31;;;;;;;1.87;1.77;;;22.40;66.40;;;;;;4951903;28;20651;-68
2022/06/14 05:54:24;;;;;;;3.17;2.20;;;22.70;65.70;;;;;;4946228;29;20620;-68
2022/06/14 05:56:59;;;;;;;2.60;2.23;;;23.10;65.40;;;;;;4953365;28;20727;-68
2022/06/14 05:59:40;;;;;;;4.53;2.30;;;23.10;64.60;;;;;;4954805;29;20623;-68
2022/06/14 06:02:31;;;;;;;7.90;2.17;;;23.40;64.30;;;;;;4953150;28;20652;-68
2022/06/14 06:05:06;;;;;;;4.13;2.20;;;23.80;63.30;;;;;;4955408;28;20644;-68
2022/06/14 06:07:40;;;;;;;2.20;2.10;;;24.20;62.30;;;;;;4955043;28;20629;-68
2022/06/14 06:10:18;;;;;;;2.60;2.40;;;24.60;61.30;;;;;;4938869;28;20689;-68
2022/06/14 06:12:55;;;;;;;5.30;2.10;;;24.50;61.30;;;;;;4954757;29;20715;-68
2022/06/14 06:15:30;;;;;;;2.20;2.10;;;25.00;60.10;;;;;;4948930;29;20620;-68
2022/06/14 06:18:10;;;;;;;2.37;2.13;;;25.40;59.70;;;;;;4936005;29;20618;-68
2022/06/14 06:20:52;;;;;;;2.63;1.83;;;26.10;58.40;;;;;;4942230;28;20670;-67
2022/06/14 06:23:22;;;;;;;7.43;2.50;;;26.70;57.30;;;;;;4951986;29;20632;-68
2022/06/14 06:25:53;;;;;;;2.20;2.00;;;27.10;56.30;;;;;;4954307;29;20670;-68
2022/06/14 06:28:29;;;;;;;4.63;2.47;;;27.50;55.90;;;;;;4953911;28;20635;-64
2022/06/14 06:31:02;;;;;;;2.70;2.40;;;28.20;54.60;;;;;;4954400;29;20727;-67
2022/06/14 06:33:33;;;;;;;2.17;2.07;;;28.70;53.30;;;;;;4952682;28;20608;-65
2022/06/14 06:36:38;;;;;;;4.10;2.37;;;29.30;52.60;;;;;;4953274;29;20654;-67
2022/06/14 06:39:13;;;;;;;2.37;2.23;;;29.90;51.50;;;;;;4952720;28;20654;-68
2022/06/14 06:41:50;;;;;;;1.97;1.87;;;30.50;50.60;;;;;;4937509;29;20656;-67
2022/06/14 06:44:25;;;;;;;2.30;2.20;;;31.30;49.70;;;;;;4940411;28;20731;-68
2022/06/14 06:47:03;;;;;;;2.47;2.17;;;32.40;48.30;;;;;;4945884;29;20663;-67
2022/06/14 06:49:40;;;;;;;2.40;2.30;;;33.20;47.30;;;;;;4939446;28;20646;-67
2022/06/14 06:52:09;;;;;;;2.77;2.10;;;33.80;46.00;;;;;;4954621;29;20619;-67
2022/06/14 06:54:45;;;;;;;8.57;2.27;;;34.70;45.20;;;;;;4952612;28;20714;-67
2022/06/14 06:57:18;;;;;;;2.53;2.10;;;35.60;44.10;;;;;;4954151;28;20623;-67
2022/06/14 06:59:55;;;;;;;3.00;2.30;;;36.20;42.90;;;;;;4952571;28;20747;-67
2022/06/14 07:02:29;;;;;;;5.40;2.50;;;36.50;42.40;;;;;;4953617;28;20658;-67
2022/06/14 07:05:05;;;;;;;3.00;2.70;;;37.20;41.70;;;;;;4951332;28;20672;-67
2022/06/14 07:07:58;;;;;;;2.63;2.43;;;37.70;40.90;;;38.67;nan;101250.38;4952079;28;20750;-67
2022/06/14 07:10:50;;;;;;;2.10;2.00;;;38.40;40.40;;;39.50;nan;101230.16;4935734;29;20659;-68
2022/06/14 07:13:27;;;;;;;2.20;2.10;;;38.70;39.80;;;40.28;nan;101238.06;4954294;28;20624;-68
2022/06/14 07:16:11;;;;;;;3.40;2.40;;;39.60;39.10;;;40.32;nan;101232.84;4948892;29;20624;-68
2022/06/14 07:19:17;;;;;;;2.80;2.17;;;39.70;38.30;;;41.12;nan;101236.34;4933278;29;21189;-67
2022/06/14 07:21:57;;;;;;;4.87;1.90;;;40.20;37.70;;;41.74;nan;101241.34;4946132;28;21223;-67
2022/06/14 07:24:35;;;;;;;2.47;2.37;;;41.00;37.00;;;42.10;nan;101244.22;4936836;28;20808;-67
2022/06/14 07:27:26;;;;;;;2.30;2.10;;;41.40;36.60;;;42.55;nan;101243.25;4939744;28;20625;-67
2022/06/14 07:30:02;;;;;;;3.33;2.40;;;41.80;36.10;;;43.14;nan;101244.88;4931139;29;21241;-67
2022/06/14 07:32:41;;;;;;;2.77;2.57;;;42.30;35.90;;;43.05;nan;101244.00;4939550;28;20631;-68
2022/06/14 07:35:08;;;;;;;2.40;2.20;;;42.60;35.70;;;43.05;nan;101241.25;4952683;28;20636;-67
2022/06/14 07:37:51;;;;;;;2.60;2.50;;;42.30;35.90;;;43.05;nan;101236.59;4952051;28;20627;-69
2022/06/14 07:41:00;;;;;;;8.27;2.77;;;42.30;35.50;;;43.86;nan;101231.75;4951105;29;20631;-67
2022/06/14 07:44:01;;;;;;;2.57;2.40;;;43.10;35.40;;;44.54;nan;101228.38;4951176;29;21066;-69
2022/06/14 07:46:58;;;;;;;3.77;2.40;;;43.70;34.90;;;44.52;nan;101231.47;4952260;28;21231;-67
2022/06/14 07:49:56;;;;;;;6.90;2.90;;;43.90;34.50;;;44.94;nan;101227.09;4952541;28;20632;-67
2022/06/14 07:52:43;;;;;;;4.80;2.63;;;44.20;34.20;;;45.73;nan;101226.59;4949550;28;20643;-68
2022/06/14 07:55:59;;;;;;;2.53;2.33;;;45.00;33.60;;;46.33;nan;101226.31;4952670;28;20608;-67
2022/06/14 07:58:30;;;;;;;3.33;3.03;;;45.90;33.20;;;;;;4960626;28;20645;-67
2022/06/14 08:01:09;;;;;;;8.23;3.17;;;46.10;32.90;;;;;;4950887;28;20757;-67
2022/06/14 08:03:44;;;;;;;3.07;2.87;;;46.20;32.60;;;;;;4951519;28;20690;-67
2022/06/14 08:06:23;;;;;;;3.07;2.90;;;46.00;32.40;;;;;;4949088;28;20660;-67
2022/06/14 08:09:09;;;;;;;4.87;2.50;;;45.80;32.50;;;;;;4951202;28;20723;-68
2022/06/14 08:11:45;;;;;;;4.10;2.60;;;46.10;32.20;;;;;;4951302;29;20668;-67
2022/06/14 08:14:42;;;;;;;3.30;3.07;;;46.00;32.10;;;;;;4953127;29;20630;-68
2022/06/14 08:17:13;;;;;;;2.80;2.60;;;46.70;31.70;;;;;;4951994;28;20718;-67
2022/06/14 08:19:49;;;;;;;3.13;2.80;;;46.70;31.30;;;;;;4951834;29;20724;-68
2022/06/14 08:22:25;;;;;;;2.93;2.73;;;46.60;31.50;;;;;;4951945;28;20639;-67
2022/06/14 08:24:58;;;;;;;2.90;2.60;;;46.80;31.20;;;;;;4953479;28;20619;-67
2022/06/14 08:27:36;;;;;;;2.47;2.30;;;46.80;31.40;;;;;;4952430;28;20624;-67
2022/06/14 08:30:05;;;;;;;3.00;2.87;;;47.10;30.90;;;;;;4950692;28;20671;-67
2022/06/14 08:32:48;;;;;;;2.67;2.57;;;47.30;30.80;;;;;;4951992;28;20723;-67
2022/06/14 08:35:31;;;;;;;2.70;2.50;;;47.50;30.80;;;;;;4952576;28;20858;-67
2022/06/14 08:38:00;;;;;;;2.50;2.37;;;47.30;30.90;;;;;;4952024;29;20624;-68
2022/06/14 08:40:46;;;;;;;6.77;2.10;;;47.80;30.60;;;;;;4951617;28;20746;-67
2022/06/14 08:43:20;;;;;;;2.57;2.43;;;47.80;30.10;;;;;;4953489;29;20608;-67
2022/06/14 08:46:15;;;;;;;2.47;2.27;;;48.10;29.70;;;;;;4951638;28;20676;-67
2022/06/14 08:49:09;;;;;;;2.20;2.10;;;48.20;29.90;;;;;;4952518;28;20624;-68
2022/06/14 08:51:42;;;;;;;2.13;2.03;;;48.00;29.60;;;;;;4951208;28;20656;-67
2022/06/14 08:54:30;;;;;;;2.40;2.30;;;47.90;29.30;;;;;;4952866;29;20630;-68
2022/06/14 08:57:06;;;;;;;2.40;2.40;;;48.60;29.10;;;;;;4950989;28;21247;-68
2022/06/14 08:59:47;;;;;;;2.00;1.90;;;49.20;29.30;;;;;;4951864;28;20706;-66
2022/06/14 09:02:20;;;;;;;1.97;1.93;;;48.20;28.90;;;;;;4936604;29;20616;-67
2022/06/14 09:05:13;;;;;;;4.77;2.43;;;48.90;29.20;;;;;;4946845;28;21199;-67
2022/06/14 09:07:58;;;;;;;2.40;2.17;;;49.00;28.80;;;;;;4955563;28;20642;-67
2022/06/14 09:11:03;;;;;;;3.87;2.43;;;48.70;29.20;;;;;;4954591;29;21282;-67
2022/06/14 09:14:23;;;;;;;2.63;2.50;;;48.80;29.40;;;;;;4934632;29;20624;-67
2022/06/14 09:16:50;;;;;;;3.40;2.60;;;49.90;29.10;;;;;;4947007;28;20776;-67
2022/06/14 09:19:41;;;;;;;3.50;3.20;;;49.60;28.80;;;;;;4936369;29;20625;-67
2022/06/14 09:22:23;;;;;;;2.67;2.57;;;49.50;28.90;;;;;;4953641;28;20635;-67
2022/06/14 09:24:53;;;;;;;3.10;2.80;;;49.90;28.90;;;;;;4955458;28;20618;-67
2022/06/14 09:27:57;;;;;;;3.13;2.70;;;50.70;28.80;;;;;;4956385;28;20671;-67
2022/06/14 09:30:59;;;;;;;2.90;2.70;;;51.00;28.60;;;;;;4953259;28;21106;-67
2022/06/14 09:33:51;;;;;;;3.80;3.47;;;51.00;28.70;;;;;;4954721;28;21269;-67
2022/06/14 09:36:27;;;;;;;2.97;2.77;;;50.80;28.60;;;;;;4955086;29;20623;-67
2022/06/14 09:39:13;;;;;;;2.70;2.60;;;50.40;28.40;;;;;;4953748;28;20638;-67
2022/06/14 09:41:50;;;;;;;3.40;3.20;;;50.40;28.40;;;;;;4954339;28;20749;-67
2022/06/14 09:44:20;;;;;;;2.73;2.53;;;50.40;28.40;;;;;;4954362;29;20643;-67
2022/06/14 09:46:59;;;;;;;2.90;2.63;;;50.80;28.60;;;;;;4955749;28;20757;-64
2022/06/14 09:49:42;;;;;;;2.70;2.50;;;50.60;28.60;;;;;;4954760;28;20631;-68
2022/06/14 09:52:24;;;;;;;2.30;2.20;;;50.30;28.60;;;;;;4954275;29;20654;-67
2022/06/14 09:55:15;;;;;;;2.50;2.40;;;49.60;28.60;;;;;;4954884;29;20619;-67
2022/06/14 09:58:04;;;;;;;2.93;2.67;;;49.70;28.60;;;;;;4954733;28;20734;-68
2022/06/14 10:00:53;;;;;;;2.80;2.53;;;49.10;28.70;;;;;;4955401;29;21026;-67
2022/06/14 10:03:28;;;;;;;3.10;2.80;;;48.80;28.50;;;;;;4954867;29;21183;-67
2022/06/14 10:06:33;;;;;;;3.10;3.00;;;48.30;28.30;;;;;;4953345;28;20731;-67
2022/06/14 10:09:44;;;;;;;2.60;2.50;;;47.90;28.80;;;;;;4954609;29;20719;-68
2022/06/14 10:12:38;;;;;;;3.97;2.77;;;47.10;28.90;;;;;;4952176;28;21009;-67
2022/06/14 10:15:15;;;;;;;2.77;2.53;;;45.00;29.20;;;;;;4948305;29;21099;-68
2022/06/14 10:18:14;;;;;;;4.67;2.67;;;43.40;29.60;;;;;;4953619;28;21191;-67
2022/06/14 10:20:55;;;;;;;3.07;2.80;;;40.90;30.10;;;;;;4954186;29;20667;-67
2022/06/14 10:23:34;;;;;;;5.37;2.90;;;39.30;31.10;;;;;;4954229;29;21038;-67
2022/06/14 10:29:38;;;;;;;3.57;2.83;;;35.70;33.10;;;;;;4946767;28;20644;-67
2022/06/14 10:32:23;;;;;;;10.40;3.10;;;33.90;34.90;;;;;;4953878;28;21012;-67
2022/06/14 10:34:59;;;;;;;2.80;2.60;;;32.70;35.90;;;;;;4953962;28;20768;-67
2022/06/14 10:37:46;;;;;;;5.17;2.93;;;31.90;36.60;;;;;;4955041;28;20976;-67
2022/06/14 10:40:50;;;;;;;3.17;2.90;;;31.20;37.40;;;;;;4963787;23;20694;-66
2022/06/14 10:43:29;;;;;;;3.00;2.60;;;30.70;37.50;;;;;;4987775;28;20669;-65
2022/06/14 10:46:09;;;;;;;3.37;2.57;;;30.00;38.70;;;;;;4986321;28;20647;-64
2022/06/14 10:49:11;;;;;;;3.10;2.50;;;29.80;38.30;;;;;;4977465;28;20693;-65
2022/06/14 10:52:02;;;;;;;3.00;2.80;;;29.60;38.60;;;;;;4976013;28;20686;-65
2022/06/14 10:54:28;;;;;;;3.63;3.20;;;29.40;39.00;;;;;;4970910;28;20623;-65
2022/06/14 10:57:19;;;;;;;2.87;2.63;;;29.10;39.60;;;;;;4972344;28;20639;-64
2022/06/14 11:00:24;;;;;;;4.23;2.87;;;28.70;39.80;;;;;;4979114;28;20623;-65
2022/06/14 11:03:00;;;;;;;3.37;2.60;;;28.30;40.20;;;;;;4982331;28;20730;-65
2022/06/14 11:05:58;;;;;;;2.90;2.60;;;28.20;40.50;;;;;;4973339;28;20650;-63
2022/06/14 11:08:44;;;;;;;4.20;2.83;;;28.30;40.60;;;;;;4972177;28;20710;-64
2022/06/14 11:11:28;;;;;;;3.17;2.70;;;28.10;40.90;;;;;;4972852;28;20653;-64
2022/06/14 11:14:36;;;;;;;3.30;2.63;;;28.00;40.80;;;;;;4987969;28;21115;-64
2022/06/14 11:17:27;;;;;;;2.77;2.57;;;27.60;41.30;;;;;;4968442;28;20738;-64
2022/06/14 11:20:06;;;;;;;3.63;2.40;;;27.40;42.60;;;;;;4971463;28;21198;-63
2022/06/14 11:22:52;;;;;;;4.90;2.93;;;27.00;42.50;;;;;;4969996;28;20638;-65
2022/06/14 11:25:28;;;;;;;3.00;2.80;;;26.90;43.00;;;;;;4978997;28;20711;-65
2022/06/14 11:28:23;;;;;;;4.13;2.40;;;26.70;43.30;;;;;;4970170;28;20655;-64
2022/06/14 11:31:06;;;;;;;4.43;2.60;;;26.70;42.60;;;;;;4971898;28;20654;-64
2022/06/14 11:34:03;;;;;;;3.53;3.23;;;26.60;42.30;;;;;;4969946;28;21002;-64
2022/06/14 11:37:00;;;;;;;3.07;2.77;;;26.50;43.30;;;;;;4934971;28;20633;-65
2022/06/14 11:39:27;;;;;;;3.43;2.87;;;26.40;42.80;;;;;;4970898;28;20627;-64
2022/06/14 11:41:54;;;;;;;2.90;2.70;;;26.30;43.20;;;;;;4970017;28;21033;-64
2022/06/14 11:45:03;;;;;;;2.93;2.73;;;26.30;43.80;;;;;;4971786;28;20636;-64
2022/06/14 11:48:03;;;;;;;5.07;2.80;;;26.20;43.70;;;;;;4958230;28;21061;-64
2022/06/14 11:50:41;;;;;;;3.00;2.77;;;26.40;43.40;;;;;;4965702;28;21242;-65
2022/06/14 11:53:35;;;;;;;3.70;2.80;;;26.30;43.90;;;;;;4972764;28;20611;-64
2022/06/14 11:56:11;;;;;;;4.20;2.90;;;26.30;43.50;;;;;;4972108;28;20703;-64
2022/06/14 11:59:14;;;;;;;3.20;3.00;;;26.20;44.60;;;;;;4971618;28;20717;-64
2022/06/14 12:02:22;;;;;;;3.47;3.17;;;26.20;44.40;;;;;;4972071;28;20757;-64
2022/06/14 12:05:04;;;;;;;6.00;4.10;;;26.20;44.40;;;;;;4950154;28;20650;-64
2022/06/14 12:07:46;;;;;;;3.50;3.20;;;26.20;43.90;;;;;;4969726;28;20671;-68
2022/06/14 12:10:22;;;;;;;3.03;2.90;;;26.30;44.80;;;;;;4971627;28;21081;-64
2022/06/14 12:13:15;;;;;;;3.47;3.17;;;26.10;43.90;;;;;;4972540;28;20625;-65
2022/06/14 12:16:06;;;;;;;4.23;2.90;;;26.20;43.90;;;;;;4972284;28;20711;-64
2022/06/14 12:18:38;;;;;;;3.03;2.70;;;26.00;43.60;;;;;;4959558;28;20661;-64
2022/06/14 12:22:28;;;;;;;3.03;2.40;;;25.80;43.90;;;;;;4972587;28;20651;-64
2022/06/14 12:28:02;;;;;;;3.90;2.60;;;25.90;44.20;;;;;;4937304;28;20707;-64
2022/06/14 12:30:32;;;;;;;3.00;2.43;;;26.00;43.80;;;;;;4970670;28;20701;-65
2022/06/14 12:33:04;;;;;;;3.40;2.60;;;25.90;44.10;;;;;;4972338;28;20678;-65
2022/06/14 12:35:41;;;;;;;5.17;2.90;;;26.00;43.10;;;;;;4971912;28;20615;-64
2022/06/14 12:38:17;;;;;;;2.70;2.50;;;25.90;43.90;;;;;;4971059;28;20611;-64
2022/06/14 12:41:10;;;;;;;2.70;2.47;;;25.90;43.30;;;;;;4971649;28;20666;-64
2022/06/14 12:43:46;;;;;;;3.20;1.73;;;25.90;43.10;;;;;;4983908;28;20622;-65
2022/06/14 12:46:18;;;;;;;2.60;2.50;;;25.90;43.00;;;;;;4971883;28;20623;-65
2022/06/14 12:49:07;;;;;;;4.03;2.17;;;26.00;43.30;;;;;;4971594;28;20626;-64
2022/06/14 12:51:37;;;;;;;6.67;2.50;;;26.00;43.80;;;;;;4971966;28;20730;-64
2022/06/14 12:54:21;;;;;;;2.80;2.37;;;26.00;42.70;;;;;;4972034;28;21030;-64
2022/06/14 12:57:06;;;;;;;2.43;2.33;;;26.00;41.60;;;;;;4967233;28;20615;-64
2022/06/14 12:59:48;;;;;;;2.77;2.40;;;26.00;42.10;;;;;;4967009;28;20714;-64
2022/06/14 13:02:40;;;;;;;2.63;2.30;;;26.00;42.40;;;;;;4971451;28;20654;-64
2022/06/14 13:05:10;;;;;;;3.73;2.20;;;26.00;41.80;;;;;;4971894;28;20718;-64
2022/06/14 13:07:55;;;;;;;2.87;2.40;;;26.00;40.70;;;;;;4971506;28;20766;-64
2022/06/14 13:10:57;;;;;;;2.63;2.43;;;26.00;40.10;;;;;;4983481;28;20749;-65
2022/06/14 13:14:01;;;;;;;2.57;2.37;;;26.00;40.40;;;;;;4971633;28;20653;-64
2022/06/14 13:16:52;;;;;;;3.50;2.20;;;26.00;41.90;;;;;;4971593;28;20621;-64
2022/06/14 13:19:19;;;;;;;2.30;2.20;;;26.00;42.50;;;;;;4972076;28;20615;-64
2022/06/14 13:22:23;;;;;;;2.53;2.27;;;25.90;42.50;;;;;;4971525;28;20693;-64
2022/06/14 13:25:18;;;;;;;2.83;2.30;;;25.70;42.40;;;;;;4970639;28;20722;-65
2022/06/14 13:27:51;;;;;;;2.87;2.00;;;25.70;42.50;;;;;;4963132;28;20702;-65
2022/06/14 13:30:33;;;;;;;2.70;2.50;;;25.60;42.30;;;;;;4971231;28;20645;-65
2022/06/14 13:33:24;;;;;;;1.70;1.40;;;25.60;42.40;;;;;;4970554;28;20615;-65
2022/06/14 13:36:09;;;;;;;2.17;2.07;;;25.70;42.10;;;;;;4971750;28;20628;-65
2022/06/14 13:39:00;;;;;;;2.23;2.13;;;25.80;41.90;;;;;;4971031;28;20658;-64
2022/06/14 13:42:03;;;;;;;2.47;2.27;;;25.80;42.10;;;;;;4970358;28;20697;-64
2022/06/14 13:44:48;;;;;;;2.77;2.57;;;25.90;41.90;;;;;;4970222;28;20627;-64
2022/06/14 13:47:26;;;;;;;3.80;2.40;;;25.90;41.30;;;;;;4970379;28;20686;-66
2022/06/14 13:50:01;;;;;;;2.33;2.23;;;25.90;41.70;;;;;;4974467;28;20994;-65
2022/06/14 13:53:00;;;;;;;2.20;2.00;;;25.90;41.40;;;;;;4974808;28;20633;-64
2022/06/14 13:55:49;;;;;;;2.53;2.20;;;25.90;41.40;;;;;;4974589;28;20781;-64
2022/06/14 13:58:37;;;;;;;2.73;2.37;;;25.90;41.20;;;;;;4975039;28;20755;-64
2022/06/14 14:01:18;;;;;;;2.87;2.60;;;25.90;40.90;;;;;;4973682;28;21237;-65
2022/06/14 14:04:26;;;;;;;2.60;2.40;;;25.80;41.40;;;;;;4972985;28;20630;-64
2022/06/14 14:07:15;;;;;;;2.43;2.00;;;25.70;41.40;;;;;;4973060;28;20844;-64